createdAt,value
2022-09-17T00:03:00.748Z,3.67
2022-09-17T00:06:06.709Z,3.80
2022-09-17T00:09:10.481Z,3.37
2022-09-17T00:12:14.738Z,3.37
2022-09-17T00:15:18.255Z,3.43
2022-09-17T00:18:21.138Z,2.70
2022-09-17T00:21:24.454Z,3.10
2022-09-17T00:24:27.293Z,2.67
2022-09-17T00:27:31.565Z,2.70
2022-09-17T00:30:34.644Z,2.20
2022-09-17T00:33:37.885Z,2.17
2022-09-17T00:36:41.296Z,1.90
2022-09-17T00:39:44.119Z,2.07
2022-09-17T00:42:48.796Z,2.23
2022-09-17T00:45:53.378Z,1.53
2022-09-17T00:48:57.337Z,1.50
2022-09-17T00:52:06.148Z,1.43
2022-09-17T00:55:17.712Z,1.60
2022-09-17T00:58:23.686Z,1.50
2022-09-17T01:01:26.684Z,1.37
2022-09-17T01:04:29.659Z,1.33
2022-09-17T01:07:58.854Z,1.30
2022-09-17T01:11:16.048Z,1.63
2022-09-17T01:14:34.643Z,1.47
2022-09-17T01:17:46.158Z,1.40
2022-09-17T01:21:25.255Z,1.20
2022-09-17T01:24:47.658Z,1.53
2022-09-17T01:28:26.527Z,1.10
2022-09-17T01:31:41.464Z,1.70
2022-09-17T01:34:53.896Z,1.30
2022-09-17T01:38:03.240Z,1.23
2022-09-17T01:41:13.277Z,1.20
2022-09-17T01:44:23.754Z,1.63
2022-09-17T01:47:32.936Z,1.67
2022-09-17T01:50:41.649Z,1.50
2022-09-17T01:53:51.433Z,1.23
2022-09-17T01:56:59.088Z,1.53
2022-09-17T02:00:05.701Z,1.40
2022-09-17T02:03:14.474Z,1.00
2022-09-17T02:06:22.677Z,1.00
2022-09-17T02:09:31.322Z,0.90
2022-09-17T02:12:38.930Z,1.00
2022-09-17T02:15:44.849Z,0.80
2022-09-17T02:18:55.621Z,0.70
2022-09-17T02:22:04.078Z,1.27
2022-09-17T02:25:11.551Z,1.03
2022-09-17T02:28:20.635Z,1.00
2022-09-17T02:31:23.816Z,0.80
2022-09-17T02:34:29.462Z,0.90
2022-09-17T02:37:32.317Z,0.80
2022-09-17T02:40:42.227Z,0.80
2022-09-17T02:43:56.282Z,0.60
2022-09-17T02:47:14.539Z,0.70
2022-09-17T02:50:31.430Z,1.03
2022-09-17T02:53:40.646Z,0.80
2022-09-17T02:56:52.052Z,1.00
2022-09-17T03:00:05.449Z,1.10
2022-09-17T03:03:13.688Z,0.80
2022-09-17T03:06:18.656Z,0.90
2022-09-17T03:09:21.479Z,0.83
2022-09-17T03:12:24.810Z,0.77
2022-09-17T03:15:28.342Z,0.90
2022-09-17T03:18:31.175Z,0.70
2022-09-17T03:21:35.345Z,1.00
2022-09-17T03:24:38.179Z,0.70
2022-09-17T03:27:41.093Z,0.50
2022-09-17T03:30:44.725Z,0.67
2022-09-17T03:33:47.553Z,0.70
2022-09-17T03:36:51.724Z,0.70
2022-09-17T03:39:54.614Z,0.83
2022-09-17T03:42:57.483Z,0.70
2022-09-17T03:46:01.064Z,1.33
2022-09-17T03:49:04.668Z,1.03
2022-09-17T03:52:08.859Z,0.80
2022-09-17T03:55:12.161Z,0.90
2022-09-17T03:58:15.008Z,0.63
2022-09-17T04:01:18.093Z,0.90
2022-09-17T04:04:20.953Z,1.00
2022-09-17T04:07:25.235Z,0.83
2022-09-17T04:10:29.248Z,0.70
2022-09-17T04:13:32.078Z,1.07
2022-09-17T04:16:34.989Z,0.87
2022-09-17T04:19:37.870Z,0.90
2022-09-17T04:22:42.776Z,0.87
2022-09-17T04:25:45.657Z,0.90
2022-09-17T04:28:48.518Z,0.83
2022-09-17T04:31:51.583Z,0.90
2022-09-17T04:34:54.449Z,0.70
2022-09-17T04:37:59.467Z,1.00
2022-09-17T04:41:02.403Z,1.00
2022-09-17T04:44:05.310Z,0.97
2022-09-17T04:47:08.298Z,0.70
2022-09-17T04:50:11.869Z,0.90
2022-09-17T04:53:16.027Z,1.20
2022-09-17T04:56:18.943Z,0.93
2022-09-17T04:59:21.987Z,1.07
2022-09-17T05:02:24.916Z,0.90
2022-09-17T05:05:27.853Z,0.70
2022-09-17T05:08:32.100Z,1.00
2022-09-17T05:11:35.240Z,1.40
2022-09-17T05:14:38.070Z,1.10
2022-09-17T05:17:40.869Z,0.77
2022-09-17T05:20:44.398Z,1.00
2022-09-17T05:23:48.816Z,0.73
2022-09-17T05:26:51.640Z,0.80
2022-09-17T05:29:54.478Z,1.00
2022-09-17T05:33:01.670Z,0.83
2022-09-17T05:36:04.974Z,1.10
2022-09-17T05:39:09.299Z,0.93
2022-09-17T05:42:12.338Z,0.90
2022-09-17T05:45:15.218Z,1.10
2022-09-17T05:48:18.117Z,1.23
2022-09-17T05:51:20.942Z,1.00
2022-09-17T05:54:25.136Z,0.70
2022-09-17T05:57:30.166Z,0.83
2022-09-17T06:00:32.997Z,1.00
2022-09-17T06:03:35.848Z,1.23
2022-09-17T06:06:39.186Z,1.47
2022-09-17T06:09:43.352Z,1.10
2022-09-17T06:12:46.507Z,0.93
2022-09-17T06:15:53.479Z,1.00
2022-09-17T06:18:56.686Z,0.77
2022-09-17T06:21:59.569Z,1.10
2022-09-17T06:25:04.055Z,0.87
2022-09-17T06:28:06.866Z,0.60
2022-09-17T06:31:11.473Z,1.20
2022-09-17T06:34:14.361Z,0.90
2022-09-17T06:37:17.738Z,0.80
2022-09-17T06:40:23.736Z,1.07
2022-09-17T06:43:27.004Z,1.00
2022-09-17T06:46:29.906Z,0.90
2022-09-17T06:49:32.816Z,1.03
2022-09-17T06:52:35.664Z,0.80
2022-09-17T06:55:39.888Z,1.10
2022-09-17T06:58:43.727Z,1.00
2022-09-17T07:01:47.378Z,1.23
2022-09-17T07:04:50.204Z,1.10
2022-09-17T07:07:53.624Z,1.03
2022-09-17T07:10:58.961Z,1.40
2022-09-17T07:14:01.930Z,1.00
2022-09-17T07:17:04.998Z,1.00
2022-09-17T07:20:08.539Z,0.83
2022-09-17T07:23:11.570Z,0.77
2022-09-17T07:26:17.049Z,1.10
2022-09-17T07:29:21.352Z,1.13
2022-09-17T07:32:24.655Z,0.70
2022-09-17T07:35:27.501Z,1.00
2022-09-17T07:38:31.865Z,1.00
2022-09-17T07:41:36.191Z,1.33
2022-09-17T07:44:39.025Z,0.80
2022-09-17T07:47:42.366Z,0.83
2022-09-17T07:50:45.288Z,0.80
2022-09-17T07:53:50.402Z,1.10
2022-09-17T07:56:54.606Z,1.00
2022-09-17T07:59:57.461Z,0.80
2022-09-17T08:03:00.790Z,0.77
2022-09-17T08:06:05.033Z,0.80
2022-09-17T08:09:09.953Z,1.10
2022-09-17T08:12:14.510Z,0.77
2022-09-17T08:15:17.875Z,1.33
2022-09-17T08:18:20.961Z,1.83
2022-09-17T08:21:25.382Z,0.67
2022-09-17T08:24:28.592Z,0.77
2022-09-17T08:27:33.024Z,0.97
2022-09-17T08:30:35.909Z,0.67
2022-09-17T08:33:40.668Z,0.87
2022-09-17T08:36:43.557Z,0.90
2022-09-17T08:39:46.429Z,0.90
2022-09-17T08:42:56.705Z,1.30
2022-09-17T08:46:00.935Z,1.03
2022-09-17T08:49:12.299Z,1.23
2022-09-17T08:53:02.084Z,0.73
2022-09-17T08:56:11.740Z,0.83
2022-09-17T08:59:26.318Z,1.20
2022-09-17T09:02:43.591Z,0.90
2022-09-17T09:05:48.797Z,1.07
2022-09-17T09:08:56.891Z,1.70
2022-09-17T09:12:04.374Z,1.30
2022-09-17T09:15:30.961Z,0.70
2022-09-17T09:18:39.006Z,1.23
2022-09-17T09:21:49.272Z,1.07
2022-09-17T09:25:04.646Z,1.23
2022-09-17T09:28:18.308Z,1.40
2022-09-17T09:31:35.958Z,1.50
2022-09-17T09:34:40.004Z,0.90
2022-09-17T09:37:47.462Z,1.00
2022-09-17T09:40:54.932Z,0.80
2022-09-17T09:44:04.723Z,0.70
2022-09-17T09:47:34.945Z,0.83
2022-09-17T09:51:05.637Z,1.70
2022-09-17T09:54:31.376Z,1.20
2022-09-17T09:57:43.762Z,1.10
2022-09-17T10:00:46.914Z,1.30
2022-09-17T10:03:54.091Z,1.27
2022-09-17T10:07:03.678Z,1.27
2022-09-17T10:10:10.835Z,1.50
2022-09-17T10:13:15.110Z,1.50
2022-09-17T10:16:20.297Z,1.30
2022-09-17T10:19:25.720Z,2.27
2022-09-17T10:22:32.152Z,2.30
2022-09-17T10:25:36.191Z,1.97
2022-09-17T10:28:51.180Z,2.33
2022-09-17T10:31:56.251Z,5.87
2022-09-17T10:35:04.488Z,2.30
2022-09-17T10:38:27.442Z,1.50
2022-09-17T10:41:30.500Z,0.70
2022-09-17T10:44:34.988Z,1.20
2022-09-17T10:47:42.266Z,1.53
2022-09-17T10:50:52.042Z,1.53
2022-09-17T10:54:19.130Z,1.20
2022-09-17T10:57:34.589Z,1.33
2022-09-17T11:00:46.512Z,1.67
2022-09-17T11:04:01.793Z,0.97
2022-09-17T11:07:24.293Z,1.43
2022-09-17T11:10:36.375Z,0.90
2022-09-17T11:13:46.760Z,0.80
2022-09-17T11:17:01.329Z,1.00
2022-09-17T11:20:08.143Z,1.13
2022-09-17T11:23:32.181Z,1.23
2022-09-17T11:26:40.659Z,0.73
2022-09-17T11:30:13.081Z,1.10
2022-09-17T11:33:35.837Z,1.03
2022-09-17T11:36:49.129Z,0.97
2022-09-17T11:39:58.220Z,1.03
2022-09-17T11:43:06.113Z,1.20
2022-09-17T11:46:14.324Z,0.90
2022-09-17T11:49:32.898Z,1.20
2022-09-17T11:52:40.856Z,1.17
2022-09-17T11:55:51.268Z,1.10
2022-09-17T11:58:59.763Z,0.97
2022-09-17T12:02:06.832Z,0.80
2022-09-17T12:05:17.938Z,1.10
2022-09-17T12:08:24.933Z,1.00
2022-09-17T12:11:35.738Z,0.93
2022-09-17T12:14:47.453Z,0.97
2022-09-17T12:18:20.510Z,0.80
2022-09-17T12:21:24.712Z,0.50
2022-09-17T12:24:29.310Z,0.60
2022-09-17T12:27:39.289Z,1.10
2022-09-17T12:30:47.377Z,1.43
2022-09-17T12:33:56.289Z,0.80
2022-09-17T12:37:09.918Z,0.60
2022-09-17T12:40:22.393Z,0.90
2022-09-17T12:43:41.984Z,0.90
2022-09-17T12:46:57.325Z,1.03
2022-09-17T12:50:16.133Z,0.93
2022-09-17T12:53:26.945Z,1.13
2022-09-17T12:56:43.466Z,1.03
2022-09-17T12:59:52.781Z,1.20
2022-09-17T13:03:07.401Z,1.13
2022-09-17T13:06:45.233Z,1.07
2022-09-17T13:10:18.119Z,1.27
2022-09-17T13:13:31.655Z,1.20
2022-09-17T13:16:42.063Z,1.20
2022-09-17T13:19:53.021Z,1.00
2022-09-17T13:22:59.019Z,1.30
2022-09-17T13:26:05.256Z,1.20
2022-09-17T13:29:10.031Z,1.20
2022-09-17T13:32:43.422Z,1.40
2022-09-17T13:35:50.790Z,1.00
2022-09-17T13:38:53.728Z,1.40
2022-09-17T13:42:03.655Z,1.40
2022-09-17T13:45:13.257Z,1.47
2022-09-17T13:48:22.165Z,1.50
2022-09-17T13:51:58.400Z,0.87
2022-09-17T13:55:02.321Z,1.10
2022-09-17T13:58:08.606Z,1.00
2022-09-17T14:01:14.689Z,1.47
2022-09-17T14:04:35.257Z,0.70
2022-09-17T14:07:49.043Z,0.80
2022-09-17T14:10:52.771Z,0.80
2022-09-17T14:13:56.974Z,1.03
2022-09-17T14:16:59.983Z,0.50
2022-09-17T14:20:05.517Z,0.50
2022-09-17T14:23:13.296Z,0.57
2022-09-17T14:26:28.657Z,0.50
2022-09-17T14:29:47.080Z,0.60
2022-09-17T14:32:59.272Z,0.73
2022-09-17T14:36:11.647Z,0.50
2022-09-17T14:39:21.600Z,0.50
2022-09-17T14:42:29.944Z,0.50
2022-09-17T14:45:37.826Z,0.73
2022-09-17T14:48:40.736Z,1.47
2022-09-17T14:51:45.451Z,1.13
2022-09-17T14:54:48.610Z,0.87
2022-09-17T14:57:54.088Z,0.63
2022-09-17T15:00:57.401Z,0.60
2022-09-17T15:04:21.070Z,1.47
2022-09-17T15:07:26.285Z,0.43
2022-09-17T15:10:29.142Z,0.73
2022-09-17T15:13:36.080Z,0.67
2022-09-17T15:16:39.449Z,0.40
2022-09-17T15:19:45.106Z,0.40
2022-09-17T15:22:56.522Z,0.60
2022-09-17T15:26:02.446Z,0.50
2022-09-17T15:29:06.668Z,0.47
2022-09-17T15:32:12.769Z,0.60
2022-09-17T15:35:24.478Z,0.63
2022-09-17T15:38:30.400Z,0.77
2022-09-17T15:41:35.079Z,1.10
2022-09-17T15:44:39.719Z,0.80
2022-09-17T15:47:52.992Z,0.80
2022-09-17T15:50:57.171Z,0.70
2022-09-17T15:54:04.875Z,0.70
2022-09-17T15:57:14.976Z,1.03
2022-09-17T16:00:20.145Z,0.67
2022-09-17T16:04:05.329Z,0.60
2022-09-17T16:07:30.760Z,0.70
2022-09-17T16:10:35.159Z,0.63
2022-09-17T16:13:38.166Z,0.50
2022-09-17T16:16:41.085Z,0.43
2022-09-17T16:19:44.116Z,0.50
2022-09-17T16:22:48.241Z,0.50
2022-09-17T16:25:53.269Z,0.70
2022-09-17T16:29:00.552Z,0.47
2022-09-17T16:32:03.813Z,0.70
2022-09-17T16:35:07.234Z,0.57
2022-09-17T16:38:11.664Z,0.60
2022-09-17T16:41:16.087Z,0.33
2022-09-17T16:44:19.106Z,0.30
2022-09-17T16:47:22.240Z,0.50
2022-09-17T16:50:25.174Z,0.40
2022-09-17T16:53:28.126Z,0.43
2022-09-17T16:56:32.418Z,0.50
2022-09-17T16:59:35.332Z,0.40
2022-09-17T17:02:38.307Z,0.50
2022-09-17T17:05:41.697Z,0.93
2022-09-17T17:08:44.697Z,0.83
2022-09-17T17:11:48.998Z,0.80
2022-09-17T17:14:53.497Z,0.50
2022-09-17T17:17:56.364Z,1.47
2022-09-17T17:21:06.355Z,0.50
2022-09-17T17:24:09.265Z,0.70
2022-09-17T17:27:14.497Z,0.90
2022-09-17T17:30:18.267Z,0.60
2022-09-17T17:33:21.144Z,0.53
2022-09-17T17:36:23.984Z,0.50
2022-09-17T17:39:27.129Z,0.40
2022-09-17T17:42:37.144Z,0.40
2022-09-17T17:45:40.650Z,0.60
2022-09-17T17:48:43.949Z,0.63
2022-09-17T17:51:46.977Z,0.40
2022-09-17T17:54:50.278Z,0.60
2022-09-17T17:58:01.317Z,0.50
2022-09-17T18:01:12.204Z,0.60
2022-09-17T18:04:15.052Z,0.60
2022-09-17T18:07:18.002Z,1.37
2022-09-17T18:10:21.193Z,0.77
2022-09-17T18:13:25.636Z,1.13
2022-09-17T18:16:29.248Z,0.90
2022-09-17T18:19:32.129Z,0.97
2022-09-17T18:22:35.071Z,1.23
2022-09-17T18:25:38.112Z,1.23
2022-09-17T18:28:42.996Z,0.70
2022-09-17T18:31:45.975Z,0.90
2022-09-17T18:34:51.162Z,0.90
2022-09-17T18:37:54.677Z,0.90
2022-09-17T18:40:58.071Z,1.13
2022-09-17T18:44:02.573Z,0.83
2022-09-17T18:47:05.565Z,1.30
2022-09-17T18:50:09.451Z,1.40
2022-09-17T18:53:12.904Z,1.50
2022-09-17T18:56:17.796Z,1.10
2022-09-17T18:59:21.984Z,1.00
2022-09-17T19:02:25.062Z,0.63
2022-09-17T19:05:28.795Z,0.60
2022-09-17T19:08:31.796Z,0.70
2022-09-17T19:11:36.392Z,1.03
2022-09-17T19:14:40.710Z,1.00
2022-09-17T19:17:43.566Z,1.33
2022-09-17T19:20:46.661Z,1.20
2022-09-17T19:23:50.822Z,1.00
2022-09-17T19:26:54.232Z,1.07
2022-09-17T19:30:00.310Z,1.20
2022-09-17T19:33:03.163Z,0.70
2022-09-17T19:36:08.904Z,1.10
2022-09-17T19:39:11.945Z,1.00
2022-09-17T19:42:15.495Z,0.90
2022-09-17T19:45:19.981Z,1.37
2022-09-17T19:48:25.282Z,0.80
2022-09-17T19:51:29.581Z,0.90
2022-09-17T19:54:32.701Z,1.50
2022-09-17T19:57:35.555Z,2.93
2022-09-17T20:00:40.231Z,1.47
2022-09-17T20:03:45.019Z,1.33
2022-09-17T20:06:47.989Z,1.30
2022-09-17T20:09:50.865Z,1.10
2022-09-17T20:12:53.739Z,1.03
2022-09-17T20:16:04.545Z,2.87
2022-09-17T20:19:08.243Z,2.03
2022-09-17T20:22:11.339Z,1.60
2022-09-17T20:25:14.225Z,1.70
2022-09-17T20:28:17.074Z,1.90
2022-09-17T20:31:23.559Z,1.10
2022-09-17T20:34:26.697Z,1.60
2022-09-17T20:38:16.095Z,1.40
2022-09-17T20:40:52.926Z,1.73
2022-09-17T20:43:56.207Z,2.67
2022-09-17T20:47:01.827Z,2.20
2022-09-17T20:50:05.237Z,1.73
2022-09-17T20:53:08.488Z,1.70
2022-09-17T20:56:13.227Z,0.90
2022-09-17T20:59:18.628Z,1.33
2022-09-17T21:02:25.431Z,1.10
2022-09-17T21:05:28.318Z,1.47
2022-09-17T21:08:31.366Z,1.03
2022-09-17T21:11:35.699Z,1.40
2022-09-17T21:14:39.048Z,0.73
2022-09-17T21:17:45.338Z,1.03
2022-09-17T21:20:48.217Z,1.27
2022-09-17T21:23:52.516Z,0.70
2022-09-17T21:26:55.394Z,0.73
2022-09-17T21:29:58.267Z,0.70
2022-09-17T21:33:02.866Z,1.23
2022-09-17T21:36:07.588Z,0.60
2022-09-17T21:39:13.735Z,0.67
2022-09-17T21:42:16.574Z,0.40
2022-09-17T21:45:19.491Z,0.40
2022-09-17T21:48:23.705Z,0.60
2022-09-17T21:51:30.638Z,0.30
2022-09-17T21:54:33.601Z,0.47
2022-09-17T21:57:36.681Z,0.30
2022-09-17T22:00:39.480Z,0.30
2022-09-17T22:03:44.544Z,0.50
2022-09-17T22:06:48.968Z,0.30
2022-09-17T22:09:51.810Z,0.40
2022-09-17T22:12:54.807Z,0.30
2022-09-17T22:15:58.751Z,0.40
2022-09-17T22:19:04.135Z,0.30
2022-09-17T22:22:06.995Z,0.83
2022-09-17T22:25:10.608Z,0.40
2022-09-17T22:28:21.315Z,0.80
2022-09-17T22:31:24.688Z,0.40
2022-09-17T22:34:29.708Z,0.40
2022-09-17T22:37:32.661Z,0.63
2022-09-17T22:40:37.084Z,0.47
2022-09-17T22:43:40.075Z,0.30
2022-09-17T22:46:43.574Z,0.47
2022-09-17T22:49:47.802Z,0.40
2022-09-17T22:52:50.665Z,0.40
2022-09-17T22:55:57.559Z,0.30
2022-09-17T22:59:00.871Z,0.50
2022-09-17T23:02:03.818Z,0.73
2022-09-17T23:05:08.521Z,0.60
2022-09-17T23:08:11.377Z,0.50
2022-09-17T23:11:18.985Z,0.87
2022-09-17T23:14:21.834Z,0.50
2022-09-17T23:17:29.213Z,0.70
2022-09-17T23:20:34.034Z,0.50
2022-09-17T23:23:37.911Z,0.57
2022-09-17T23:26:40.758Z,0.40
2022-09-17T23:29:43.625Z,0.40
2022-09-17T23:32:46.465Z,0.60
2022-09-17T23:35:50.652Z,0.70
2022-09-17T23:38:55.533Z,0.40
2022-09-17T23:41:58.459Z,0.70
2022-09-17T23:45:02.076Z,0.37
2022-09-17T23:48:04.992Z,0.70
2022-09-17T23:51:10.083Z,0.73
2022-09-17T23:54:13.111Z,0.60
2022-09-17T23:57:15.998Z,0.73
